createdAt,value
2019-03-16T00:02:32.850Z,0.90
2019-03-16T00:05:04.921Z,1.07
2019-03-16T00:07:35.683Z,1.00
2019-03-16T00:10:06.550Z,1.10
2019-03-16T00:12:37.312Z,1.10
2019-03-16T00:15:08.275Z,1.10
2019-03-16T00:17:39.032Z,1.13
2019-03-16T00:20:10.599Z,1.00
2019-03-16T00:22:41.365Z,0.90
2019-03-16T00:25:12.129Z,1.07
2019-03-16T00:27:42.886Z,0.90
2019-03-16T00:30:13.684Z,1.17
2019-03-16T00:32:44.429Z,1.00
2019-03-16T00:35:15.199Z,0.97
2019-03-16T00:37:45.951Z,0.90
2019-03-16T00:40:16.720Z,0.90
2019-03-16T00:42:47.477Z,1.00
2019-03-16T00:45:18.241Z,0.97
2019-03-16T00:47:49.002Z,1.00
2019-03-16T00:50:19.769Z,1.00
2019-03-16T00:52:50.526Z,0.90
2019-03-16T00:55:21.289Z,0.90
2019-03-16T00:57:52.041Z,1.00
2019-03-16T01:00:22.818Z,0.90
2019-03-16T01:02:53.574Z,0.90
2019-03-16T01:05:24.543Z,0.90
2019-03-16T01:07:55.312Z,0.93
2019-03-16T01:10:26.069Z,0.90
2019-03-16T01:12:56.831Z,1.00
2019-03-16T01:15:27.593Z,0.90
2019-03-16T01:17:58.350Z,0.83
2019-03-16T01:20:29.117Z,0.80
2019-03-16T01:22:59.869Z,0.87
2019-03-16T01:25:30.638Z,0.90
2019-03-16T01:28:01.395Z,0.80
2019-03-16T01:30:32.179Z,0.90
2019-03-16T01:33:02.925Z,1.00
2019-03-16T01:35:33.690Z,0.90
2019-03-16T01:38:04.445Z,1.00
2019-03-16T01:40:35.218Z,0.90
2019-03-16T01:43:05.969Z,0.97
2019-03-16T01:45:36.738Z,0.80
2019-03-16T01:48:07.500Z,0.90
2019-03-16T01:50:38.257Z,0.90
2019-03-16T01:53:09.038Z,0.90
2019-03-16T01:55:39.806Z,1.00
2019-03-16T01:58:10.568Z,0.90
2019-03-16T02:00:41.340Z,0.90
2019-03-16T02:03:12.108Z,0.87
2019-03-16T02:05:42.869Z,1.00
2019-03-16T02:08:13.618Z,1.10
2019-03-16T02:10:44.386Z,0.90
2019-03-16T02:13:15.143Z,0.90
2019-03-16T02:15:45.905Z,0.80
2019-03-16T02:18:16.663Z,0.90
2019-03-16T02:20:47.429Z,1.20
2019-03-16T02:23:18.197Z,0.90
2019-03-16T02:25:49.055Z,1.00
2019-03-16T02:28:19.812Z,1.00
2019-03-16T02:30:50.599Z,0.90
2019-03-16T02:33:21.357Z,0.90
2019-03-16T02:35:52.119Z,0.90
2019-03-16T02:38:22.885Z,0.90
2019-03-16T02:40:53.644Z,1.00
2019-03-16T02:43:24.404Z,0.93
2019-03-16T02:45:55.172Z,0.87
2019-03-16T02:48:25.928Z,0.90
2019-03-16T02:50:56.690Z,1.10
2019-03-16T02:53:27.446Z,0.80
2019-03-16T02:55:58.216Z,0.90
2019-03-16T02:58:28.979Z,0.90
2019-03-16T03:00:59.747Z,1.00
2019-03-16T03:03:30.512Z,1.00
2019-03-16T03:06:01.279Z,0.93
2019-03-16T03:08:32.035Z,1.20
2019-03-16T03:11:02.808Z,0.90
2019-03-16T03:13:33.585Z,0.90
2019-03-16T03:16:04.333Z,0.87
2019-03-16T03:18:35.084Z,0.90
2019-03-16T03:21:05.854Z,1.00
2019-03-16T03:23:36.610Z,1.00
2019-03-16T03:26:07.378Z,1.20
2019-03-16T03:28:38.134Z,0.90
2019-03-16T03:31:09.102Z,0.93
2019-03-16T03:33:59.198Z,0.80
2019-03-16T03:36:12.542Z,0.80
2019-03-16T03:38:43.309Z,0.90
2019-03-16T03:41:14.069Z,0.90
2019-03-16T03:43:45.090Z,0.90
2019-03-16T03:46:15.854Z,0.90
2019-03-16T03:48:46.617Z,0.90
2019-03-16T03:51:17.408Z,0.90
2019-03-16T03:53:48.146Z,0.80
2019-03-16T03:56:18.910Z,0.80
2019-03-16T03:58:49.894Z,1.00
2019-03-16T04:01:20.765Z,1.00
2019-03-16T04:03:51.513Z,1.00
2019-03-16T04:06:22.270Z,0.90
2019-03-16T04:08:53.028Z,0.90
2019-03-16T04:11:23.809Z,0.97
2019-03-16T04:13:54.565Z,0.90
2019-03-16T04:16:25.331Z,0.90
2019-03-16T04:18:56.091Z,0.90
2019-03-16T04:21:26.963Z,0.90
2019-03-16T04:23:57.727Z,0.90
2019-03-16T04:26:28.577Z,0.90
2019-03-16T04:28:59.348Z,0.97
2019-03-16T04:31:30.128Z,1.00
2019-03-16T04:34:00.892Z,0.90
2019-03-16T04:36:31.932Z,0.90
2019-03-16T04:39:04.694Z,0.80
2019-03-16T04:41:35.464Z,0.90
2019-03-16T04:44:06.224Z,0.80
2019-03-16T04:46:36.997Z,1.00
2019-03-16T04:49:07.759Z,0.97
2019-03-16T04:51:38.521Z,0.80
2019-03-16T04:54:09.286Z,0.90
2019-03-16T04:56:40.058Z,0.90
2019-03-16T04:59:10.817Z,0.80
2019-03-16T05:01:41.581Z,1.00
2019-03-16T05:04:12.335Z,0.87
2019-03-16T05:06:43.102Z,1.03
2019-03-16T05:09:13.861Z,0.90
2019-03-16T05:11:44.626Z,0.90
2019-03-16T05:14:15.386Z,0.90
2019-03-16T05:16:46.163Z,0.83
2019-03-16T05:19:16.917Z,0.80
2019-03-16T05:21:47.683Z,0.90
2019-03-16T05:24:18.438Z,1.60
2019-03-16T05:26:49.210Z,0.80
2019-03-16T05:29:19.970Z,0.80
2019-03-16T05:31:50.958Z,0.90
2019-03-16T05:34:21.729Z,0.80
2019-03-16T05:36:55.966Z,0.87
2019-03-16T05:39:25.181Z,0.90
2019-03-16T05:41:55.951Z,1.00
2019-03-16T05:44:26.754Z,1.10
2019-03-16T05:46:57.525Z,1.00
2019-03-16T05:49:28.288Z,1.00
2019-03-16T05:51:59.046Z,1.07
2019-03-16T05:54:29.804Z,0.90
2019-03-16T05:57:00.569Z,0.90
2019-03-16T05:59:31.333Z,0.90
2019-03-16T06:02:02.114Z,1.00
2019-03-16T06:04:32.868Z,1.03
2019-03-16T06:07:03.621Z,1.10
2019-03-16T06:09:34.377Z,1.00
2019-03-16T06:12:05.160Z,0.90
2019-03-16T06:14:35.917Z,0.90
2019-03-16T06:17:06.687Z,0.90
2019-03-16T06:19:37.441Z,0.90
2019-03-16T06:22:08.218Z,1.00
2019-03-16T06:24:38.978Z,1.00
2019-03-16T06:27:09.745Z,1.00
2019-03-16T06:29:40.502Z,1.00
2019-03-16T06:32:11.279Z,1.00
2019-03-16T06:34:42.042Z,0.90
2019-03-16T06:37:12.812Z,1.00
2019-03-16T06:39:43.569Z,1.07
2019-03-16T06:42:14.353Z,0.93
2019-03-16T06:44:45.112Z,0.90
2019-03-16T06:47:15.885Z,1.00
2019-03-16T06:49:46.647Z,1.10
2019-03-16T06:52:17.408Z,1.10
2019-03-16T06:54:48.165Z,1.00
2019-03-16T06:57:18.933Z,1.10
2019-03-16T06:59:49.698Z,1.13
2019-03-16T07:02:20.554Z,1.20
2019-03-16T07:04:51.319Z,0.90
2019-03-16T07:07:22.087Z,1.07
2019-03-16T07:09:52.842Z,0.80
2019-03-16T07:12:23.995Z,0.97
2019-03-16T07:14:54.757Z,0.97
2019-03-16T07:17:25.565Z,0.80
2019-03-16T07:19:56.318Z,0.90
2019-03-16T07:22:27.082Z,1.00
2019-03-16T07:24:57.838Z,0.83
2019-03-16T07:27:28.625Z,1.00
2019-03-16T07:29:59.374Z,1.00
2019-03-16T07:32:30.178Z,0.90
2019-03-16T07:35:00.938Z,1.00
2019-03-16T07:37:31.702Z,1.10
2019-03-16T07:40:05.066Z,1.10
2019-03-16T07:42:35.879Z,1.20
2019-03-16T07:45:11.018Z,1.00
2019-03-16T07:47:41.785Z,1.17
2019-03-16T07:50:12.995Z,0.90
2019-03-16T07:52:43.766Z,0.90
2019-03-16T07:55:14.529Z,1.13
2019-03-16T07:57:45.290Z,1.10
2019-03-16T08:00:16.048Z,1.20
2019-03-16T08:02:46.840Z,1.00
2019-03-16T08:05:19.291Z,1.10
2019-03-16T08:07:50.269Z,1.10
2019-03-16T08:10:21.043Z,1.00
2019-03-16T08:12:51.811Z,0.90
2019-03-16T08:15:22.565Z,0.90
2019-03-16T08:17:53.337Z,1.00
2019-03-16T08:20:24.093Z,1.17
2019-03-16T08:22:54.859Z,1.83
2019-03-16T08:25:25.619Z,1.00
2019-03-16T08:27:56.382Z,1.00
2019-03-16T08:30:27.153Z,1.20
2019-03-16T08:32:57.919Z,1.00
2019-03-16T08:35:28.674Z,1.20
2019-03-16T08:37:59.437Z,1.20
2019-03-16T08:40:30.194Z,1.10
2019-03-16T08:43:00.961Z,1.00
2019-03-16T08:45:31.720Z,1.30
2019-03-16T08:48:02.770Z,1.10
2019-03-16T08:50:33.551Z,0.90
2019-03-16T08:53:04.314Z,0.90
2019-03-16T08:55:35.079Z,1.00
2019-03-16T08:58:06.510Z,1.00
2019-03-16T09:00:37.410Z,1.00
2019-03-16T09:03:08.178Z,1.00
2019-03-16T09:05:38.934Z,1.20
2019-03-16T09:08:09.704Z,1.20
2019-03-16T09:10:40.461Z,1.43
2019-03-16T09:13:11.226Z,1.20
2019-03-16T09:15:42.057Z,1.00
2019-03-16T09:18:12.861Z,1.10
2019-03-16T09:20:43.620Z,1.30
2019-03-16T09:23:14.391Z,1.13
2019-03-16T09:25:45.145Z,1.43
2019-03-16T09:28:18.988Z,1.10
2019-03-16T09:30:48.583Z,1.40
2019-03-16T09:33:19.529Z,1.00
2019-03-16T09:35:50.410Z,1.10
2019-03-16T09:38:21.185Z,1.43
2019-03-16T09:40:51.936Z,1.20
2019-03-16T09:43:22.697Z,1.20
2019-03-16T09:45:53.458Z,1.40
2019-03-16T09:48:24.221Z,1.10
2019-03-16T09:50:54.973Z,1.20
2019-03-16T09:53:25.738Z,1.33
2019-03-16T09:55:56.493Z,1.30
2019-03-16T09:58:31.519Z,1.30
2019-03-16T10:00:59.922Z,1.53
2019-03-16T10:03:30.685Z,1.33
2019-03-16T10:06:01.442Z,1.33
2019-03-16T10:08:32.207Z,1.23
2019-03-16T10:11:02.961Z,1.30
2019-03-16T10:13:33.726Z,1.53
2019-03-16T10:16:04.484Z,1.20
2019-03-16T10:18:35.258Z,1.40
2019-03-16T10:21:06.010Z,1.30
2019-03-16T10:23:36.779Z,1.17
2019-03-16T10:26:07.538Z,1.33
2019-03-16T10:28:43.634Z,1.23
2019-03-16T10:31:10.978Z,1.50
2019-03-16T10:33:41.746Z,1.40
2019-03-16T10:36:12.503Z,1.40
2019-03-16T10:38:43.273Z,1.30
2019-03-16T10:41:14.025Z,1.30
2019-03-16T10:43:44.792Z,1.70
2019-03-16T10:46:15.546Z,1.50
2019-03-16T10:48:46.513Z,1.30
2019-03-16T10:51:17.290Z,1.50
2019-03-16T10:53:48.037Z,1.47
2019-03-16T10:56:18.794Z,1.30
2019-03-16T10:58:56.419Z,1.30
2019-03-16T11:01:22.217Z,1.50
2019-03-16T11:03:52.982Z,1.20
2019-03-16T11:06:23.993Z,1.40
2019-03-16T11:08:54.760Z,1.40
2019-03-16T11:11:25.518Z,1.43
2019-03-16T11:13:56.286Z,1.60
2019-03-16T11:16:27.049Z,2.23
2019-03-16T11:18:57.827Z,2.83
2019-03-16T11:21:28.589Z,3.23
2019-03-16T11:23:59.350Z,2.30
2019-03-16T11:26:30.127Z,2.70
2019-03-16T11:29:09.005Z,2.67
2019-03-16T11:31:33.541Z,2.30
2019-03-16T11:34:04.305Z,2.33
2019-03-16T11:36:35.061Z,2.10
2019-03-16T11:39:06.828Z,2.03
2019-03-16T11:41:37.589Z,2.07
2019-03-16T11:44:08.353Z,1.63
2019-03-16T11:46:39.109Z,1.97
2019-03-16T11:49:09.879Z,2.57
2019-03-16T11:51:40.638Z,2.17
2019-03-16T11:54:11.410Z,2.57
2019-03-16T11:56:42.166Z,2.07
2019-03-16T11:59:21.585Z,2.10
2019-03-16T12:01:45.586Z,1.70
2019-03-16T12:04:16.477Z,1.80
2019-03-16T12:06:47.305Z,1.63
2019-03-16T12:09:18.150Z,2.00
2019-03-16T12:11:48.914Z,1.40
2019-03-16T12:14:19.685Z,1.90
2019-03-16T12:16:50.441Z,2.10
2019-03-16T12:19:21.207Z,2.20
2019-03-16T12:21:51.965Z,2.40
2019-03-16T12:24:22.751Z,2.10
2019-03-16T12:26:53.507Z,1.43
2019-03-16T12:29:33.380Z,1.90
2019-03-16T12:31:56.948Z,2.20
2019-03-16T12:34:27.714Z,2.60
2019-03-16T12:36:58.470Z,3.47
2019-03-16T12:39:29.238Z,4.17
2019-03-16T12:41:59.998Z,2.23
2019-03-16T12:44:30.766Z,1.70
2019-03-16T12:47:01.831Z,1.73
2019-03-16T12:49:32.598Z,1.60
2019-03-16T12:52:03.353Z,2.00
2019-03-16T12:54:34.128Z,1.60
2019-03-16T12:57:04.884Z,1.70
2019-03-16T12:59:46.237Z,1.70
2019-03-16T13:02:08.326Z,1.73
2019-03-16T13:04:39.094Z,1.50
2019-03-16T13:07:09.863Z,1.70
2019-03-16T13:09:42.355Z,1.60
2019-03-16T13:12:13.287Z,1.87
2019-03-16T13:14:44.050Z,1.97
2019-03-16T13:17:14.806Z,1.60
2019-03-16T13:19:45.582Z,1.50
2019-03-16T13:22:16.332Z,1.57
2019-03-16T13:24:47.101Z,1.60
2019-03-16T13:27:17.856Z,1.70
2019-03-16T13:29:58.531Z,1.63
2019-03-16T13:32:21.312Z,1.80
2019-03-16T13:34:52.083Z,2.00
2019-03-16T13:37:22.849Z,1.70
2019-03-16T13:39:53.624Z,1.73
2019-03-16T13:42:24.378Z,1.70
2019-03-16T13:44:55.187Z,1.90
2019-03-16T13:47:25.945Z,1.93
2019-03-16T13:49:56.717Z,1.63
2019-03-16T13:52:27.475Z,2.00
2019-03-16T13:54:58.246Z,1.77
2019-03-16T13:57:29.307Z,1.80
2019-03-16T14:00:11.105Z,1.83
2019-03-16T14:02:32.737Z,2.20
2019-03-16T14:05:03.806Z,1.93
2019-03-16T14:07:34.870Z,3.53
2019-03-16T14:10:09.137Z,1.93
2019-03-16T14:12:40.003Z,2.10
2019-03-16T14:15:10.778Z,2.00
2019-03-16T14:17:41.733Z,2.07
2019-03-16T14:20:14.543Z,1.87
2019-03-16T14:22:45.307Z,1.97
2019-03-16T14:25:16.076Z,1.93
2019-03-16T14:27:46.835Z,1.90
2019-03-16T14:30:29.534Z,2.00
2019-03-16T14:32:51.380Z,1.83
2019-03-16T14:35:22.147Z,2.03
2019-03-16T14:37:52.901Z,2.10
2019-03-16T14:40:23.682Z,2.07
2019-03-16T14:42:54.621Z,2.00
2019-03-16T14:45:25.891Z,2.33
2019-03-16T14:47:56.646Z,1.90
2019-03-16T14:50:27.424Z,1.80
2019-03-16T14:52:58.181Z,1.93
2019-03-16T14:55:28.954Z,1.70
2019-03-16T14:57:59.723Z,1.90
2019-03-16T15:00:38.533Z,2.10
2019-03-16T15:03:03.473Z,2.20
2019-03-16T15:05:34.613Z,2.10
2019-03-16T15:08:05.393Z,1.90
2019-03-16T15:10:36.179Z,1.80
2019-03-16T15:13:06.917Z,1.87
2019-03-16T15:15:37.689Z,2.10
2019-03-16T15:18:08.446Z,2.00
2019-03-16T15:20:39.223Z,2.33
2019-03-16T15:23:09.982Z,1.83
2019-03-16T15:25:40.753Z,2.03
2019-03-16T15:28:11.509Z,2.17
2019-03-16T15:30:50.738Z,1.87
2019-03-16T15:33:14.962Z,2.17
2019-03-16T15:35:45.749Z,2.00
2019-03-16T15:38:16.508Z,1.87
2019-03-16T15:40:48.120Z,2.20
2019-03-16T15:43:18.878Z,2.10
2019-03-16T15:45:49.645Z,2.30
2019-03-16T15:48:20.410Z,2.00
2019-03-16T15:50:51.178Z,2.20
2019-03-16T15:53:21.934Z,2.93
2019-03-16T15:55:52.714Z,3.00
2019-03-16T15:58:23.470Z,2.10
2019-03-16T16:01:03.658Z,2.47
2019-03-16T16:03:26.914Z,2.30
2019-03-16T16:05:57.682Z,2.00
2019-03-16T16:08:28.438Z,2.37
2019-03-16T16:11:01.231Z,2.00
2019-03-16T16:13:31.877Z,1.80
2019-03-16T16:16:02.763Z,1.77
2019-03-16T16:18:33.584Z,2.17
2019-03-16T16:21:04.433Z,2.23
2019-03-16T16:23:35.253Z,2.73
2019-03-16T16:26:06.106Z,2.40
2019-03-16T16:28:36.925Z,2.30
2019-03-16T16:31:16.336Z,2.03
2019-03-16T16:33:40.497Z,2.30
2019-03-16T16:36:11.277Z,2.10
2019-03-16T16:38:42.035Z,1.97
2019-03-16T16:41:12.817Z,2.27
2019-03-16T16:43:43.578Z,2.10
2019-03-16T16:46:14.350Z,2.43
2019-03-16T16:48:45.110Z,1.90
2019-03-16T16:51:15.872Z,1.90
2019-03-16T16:53:46.649Z,2.10
2019-03-16T16:56:17.414Z,2.17
2019-03-16T16:58:48.175Z,1.90
2019-03-16T17:01:28.704Z,1.60
2019-03-16T17:03:51.655Z,2.00
2019-03-16T17:06:22.422Z,1.90
2019-03-16T17:08:53.179Z,2.03
2019-03-16T17:11:26.277Z,2.13
2019-03-16T17:13:56.633Z,2.30
2019-03-16T17:16:27.413Z,1.90
2019-03-16T17:18:58.169Z,2.10
2019-03-16T17:21:28.957Z,1.80
2019-03-16T17:23:59.711Z,2.13
2019-03-16T17:26:30.490Z,2.20
2019-03-16T17:29:01.248Z,2.17
2019-03-16T17:31:41.843Z,2.40
2019-03-16T17:34:04.706Z,2.60
2019-03-16T17:36:35.472Z,2.60
2019-03-16T17:39:06.315Z,2.50
2019-03-16T17:41:37.101Z,2.47
2019-03-16T17:44:07.865Z,2.27
2019-03-16T17:46:38.695Z,2.53
2019-03-16T17:49:09.464Z,3.50
2019-03-16T17:51:40.237Z,3.30
2019-03-16T17:54:10.995Z,2.70
2019-03-16T17:56:41.763Z,2.53
2019-03-16T17:59:12.545Z,2.50
2019-03-16T18:01:54.316Z,2.50
2019-03-16T18:04:15.982Z,2.83
2019-03-16T18:06:46.753Z,2.77
2019-03-16T18:09:17.510Z,3.30
2019-03-16T18:11:48.277Z,4.03
2019-03-16T18:14:19.038Z,4.20
2019-03-16T18:16:49.884Z,4.13
2019-03-16T18:19:20.693Z,4.63
2019-03-16T18:21:51.462Z,5.67
2019-03-16T18:24:22.221Z,5.37
2019-03-16T18:26:53.008Z,4.67
2019-03-16T18:29:23.757Z,4.47
2019-03-16T18:32:07.029Z,3.83
2019-03-16T18:34:27.198Z,4.10
2019-03-16T18:36:57.966Z,4.07
2019-03-16T18:39:28.723Z,3.50
2019-03-16T18:41:59.488Z,3.30
2019-03-16T18:44:30.241Z,3.20
2019-03-16T18:47:01.017Z,3.50
2019-03-16T18:49:31.777Z,3.90
2019-03-16T18:52:02.546Z,3.90
2019-03-16T18:54:33.507Z,3.67
2019-03-16T18:57:04.284Z,3.40
2019-03-16T18:59:35.057Z,3.50
2019-03-16T19:02:05.822Z,3.70
2019-03-16T19:04:36.613Z,3.57
2019-03-16T19:07:07.353Z,3.90
2019-03-16T19:09:38.109Z,4.70
2019-03-16T19:12:08.889Z,4.03
2019-03-16T19:14:39.634Z,4.30
2019-03-16T19:17:10.431Z,5.10
2019-03-16T19:19:41.185Z,6.20
2019-03-16T19:22:11.950Z,5.43
2019-03-16T19:24:42.707Z,6.57
2019-03-16T19:27:13.474Z,6.93
2019-03-16T19:29:44.238Z,6.50
2019-03-16T19:32:18.480Z,7.03
2019-03-16T19:34:49.246Z,7.10
2019-03-16T19:37:21.370Z,7.07
2019-03-16T19:39:52.384Z,7.50
2019-03-16T19:42:23.150Z,7.00
2019-03-16T19:44:53.929Z,6.80
2019-03-16T19:47:24.682Z,5.87
2019-03-16T19:49:55.442Z,6.20
2019-03-16T19:52:26.206Z,7.20
2019-03-16T19:54:57.689Z,6.17
2019-03-16T19:57:28.571Z,6.35
2019-03-16T19:59:59.338Z,5.50
2019-03-16T20:02:30.132Z,6.67
2019-03-16T20:05:00.905Z,8.57
2019-03-16T20:07:31.661Z,8.87
2019-03-16T20:10:06.110Z,7.67
2019-03-16T20:12:36.889Z,6.37
2019-03-16T20:15:09.557Z,6.00
2019-03-16T20:17:40.321Z,5.55
2019-03-16T20:20:15.220Z,5.43
2019-03-16T20:22:45.973Z,5.53
2019-03-16T20:25:16.738Z,5.47
2019-03-16T20:27:47.498Z,5.07
2019-03-16T20:30:26.294Z,5.87
2019-03-16T20:33:03.488Z,5.70
2019-03-16T20:35:23.640Z,4.95
2019-03-16T20:37:54.389Z,6.13
2019-03-16T20:40:25.157Z,6.10
2019-03-16T20:42:55.916Z,6.67
2019-03-16T20:45:26.804Z,6.13
2019-03-16T20:47:57.770Z,5.75
2019-03-16T20:50:28.534Z,6.10
2019-03-16T20:52:59.289Z,5.93
2019-03-16T20:55:30.066Z,5.50
2019-03-16T20:58:00.820Z,5.60
2019-03-16T21:00:31.694Z,6.13
2019-03-16T21:03:15.278Z,5.53
2019-03-16T21:05:35.410Z,5.47
2019-03-16T21:08:06.178Z,5.12
2019-03-16T21:10:36.937Z,4.90
2019-03-16T21:13:07.697Z,5.27
2019-03-16T21:15:38.478Z,5.40
2019-03-16T21:18:09.378Z,5.47
2019-03-16T21:20:40.138Z,5.63
2019-03-16T21:23:11.044Z,6.40
2019-03-16T21:25:41.803Z,7.50
2019-03-16T21:28:12.584Z,9.30
2019-03-16T21:30:43.346Z,9.50
2019-03-16T21:33:14.178Z,9.23
2019-03-16T21:35:44.864Z,8.10
2019-03-16T21:38:15.642Z,5.70
2019-03-16T21:40:46.398Z,6.57
2019-03-16T21:43:17.173Z,5.63
2019-03-16T21:45:47.937Z,6.30
2019-03-16T21:48:18.705Z,6.50
2019-03-16T21:50:49.462Z,6.60
2019-03-16T21:53:20.251Z,7.00
2019-03-16T21:55:51.009Z,6.30
2019-03-16T21:58:21.773Z,6.03
2019-03-16T22:00:52.561Z,6.17
2019-03-16T22:03:23.328Z,6.53
2019-03-16T22:05:54.088Z,5.30
2019-03-16T22:08:24.902Z,6.87
2019-03-16T22:10:55.683Z,6.83
2019-03-16T22:13:26.450Z,5.80
2019-03-16T22:15:57.209Z,5.97
2019-03-16T22:18:28.078Z,5.27
2019-03-16T22:20:58.877Z,5.70
2019-03-16T22:23:29.646Z,5.63
2019-03-16T22:26:00.401Z,5.53
2019-03-16T22:28:31.169Z,5.40
2019-03-16T22:31:01.956Z,5.20
2019-03-16T22:33:32.722Z,5.57
2019-03-16T22:36:03.496Z,5.60
2019-03-16T22:38:34.270Z,5.63
2019-03-16T22:41:05.026Z,6.67
2019-03-16T22:43:35.808Z,7.03
2019-03-16T22:46:06.573Z,6.07
2019-03-16T22:48:37.346Z,6.60
2019-03-16T22:51:08.126Z,7.00
2019-03-16T22:53:39.075Z,6.07
2019-03-16T22:56:09.860Z,6.47
2019-03-16T22:58:40.629Z,6.93
2019-03-16T23:01:11.492Z,6.13
2019-03-16T23:03:42.324Z,6.20
2019-03-16T23:06:13.094Z,6.53
2019-03-16T23:08:43.858Z,5.90
2019-03-16T23:11:14.615Z,5.73
2019-03-16T23:13:45.377Z,5.90
2019-03-16T23:16:18.745Z,5.83
2019-03-16T23:18:48.806Z,5.40
2019-03-16T23:21:19.562Z,5.77
2019-03-16T23:23:50.325Z,5.70
2019-03-16T23:26:21.082Z,6.70
2019-03-16T23:28:51.849Z,5.90
2019-03-16T23:31:22.623Z,5.87
2019-03-16T23:33:53.390Z,5.50
2019-03-16T23:36:24.149Z,5.93
2019-03-16T23:38:54.917Z,5.20
2019-03-16T23:41:25.677Z,6.00
2019-03-16T23:43:56.470Z,5.57
2019-03-16T23:46:27.231Z,5.10
2019-03-16T23:48:58.003Z,4.90
2019-03-16T23:51:28.769Z,5.57
2019-03-16T23:53:59.553Z,5.30
2019-03-16T23:56:30.325Z,5.57
2019-03-16T23:59:01.113Z,5.70
